Terminal Aerodrome Forecast
Issued by NWS Tampa Bay Area, FL

Home | Current Version | Previous Version | Text Only | Print | Product List | Glossary On
Versions: 1 2 3 4 5 6 7 8 9 10 11 12 13 14 15 16 17 18 19
000
FTUS42 KTBW 191500 AAA
TAFFMY
TAF AMD
KFMY 191511Z 1915/2012 06007KT 6SM SHRA VCTS BKN008 BKN040CB BKN100
      OVC150
     FM191600 06007KT 6SM SHRA VCTS BKN040CB BKN100 OVC150
      TEMPO 1916/1920 4SM TSRA BKN030CB
     FM200100 05005KT 6SM SHRA BR SCT020 BKN035 OVC100=

USA.gov is the U.S. government's official web portal to all federal, state and local government web resources and services.